sensor_id;sensor_type;location;lat;lon;timestamp;pressure;altitude;pressure_sealevel;temperature;humidity
63715;BME280;49858;48.956;9.076;2023-07-29T00:02:04;98389.81;;;20.55;100.00
63715;BME280;49858;48.956;9.076;2023-07-29T00:04:33;98377.63;;;20.65;100.00
63715;BME280;49858;48.956;9.076;2023-07-29T00:07:00;98381.59;;;20.48;100.00
63715;BME280;49858;48.956;9.076;2023-07-29T00:09:28;98375.56;;;20.49;100.00
63715;BME280;49858;48.956;9.076;2023-07-29T00:11:56;98374.31;;;20.70;100.00
63715;BME280;49858;48.956;9.076;2023-07-29T00:14:24;98368.84;;;20.83;100.00
63715;BME280;49858;48.956;9.076;2023-07-29T00:16:53;98371.13;;;20.88;100.00
63715;BME280;49858;48.956;9.076;2023-07-29T00:19:21;98363.44;;;20.92;100.00
63715;BME280;49858;48.956;9.076;2023-07-29T00:21:50;98362.91;;;20.81;100.00
63715;BME280;49858;48.956;9.076;2023-07-29T00:24:17;98362.84;;;20.84;100.00
63715;BME280;49858;48.956;9.076;2023-07-29T00:26:45;98358.50;;;20.63;100.00
63715;BME280;49858;48.956;9.076;2023-07-29T00:29:13;98362.78;;;20.68;100.00
63715;BME280;49858;48.956;9.076;2023-07-29T00:31:41;98356.09;;;20.82;100.00
63715;BME280;49858;48.956;9.076;2023-07-29T00:34:14;98356.72;;;20.53;100.00
63715;BME280;49858;48.956;9.076;2023-07-29T00:36:46;98372.59;;;20.36;100.00
63715;BME280;49858;48.956;9.076;2023-07-29T00:39:14;98374.09;;;20.41;100.00
63715;BME280;49858;48.956;9.076;2023-07-29T00:41:41;98382.63;;;20.74;100.00
63715;BME280;49858;48.956;9.076;2023-07-29T00:44:09;98370.22;;;20.75;100.00
63715;BME280;49858;48.956;9.076;2023-07-29T00:46:37;98367.84;;;20.73;100.00
63715;BME280;49858;48.956;9.076;2023-07-29T00:49:08;98353.28;;;20.82;100.00
63715;BME280;49858;48.956;9.076;2023-07-29T00:51:38;98344.00;;;20.68;100.00
63715;BME280;49858;48.956;9.076;2023-07-29T00:54:06;98345.88;;;20.55;100.00
63715;BME280;49858;48.956;9.076;2023-07-29T00:56:34;98342.31;;;20.55;100.00
63715;BME280;49858;48.956;9.076;2023-07-29T00:59:06;98352.41;;;20.29;100.00
63715;BME280;49858;48.956;9.076;2023-07-29T01:01:34;98346.00;;;20.08;100.00
63715;BME280;49858;48.956;9.076;2023-07-29T01:04:02;98354.66;;;19.94;100.00
63715;BME280;49858;48.956;9.076;2023-07-29T01:06:36;98358.56;;;20.00;100.00
63715;BME280;49858;48.956;9.076;2023-07-29T01:09:16;98354.16;;;19.99;100.00
63715;BME280;49858;48.956;9.076;2023-07-29T01:11:52;98353.47;;;20.15;100.00
63715;BME280;49858;48.956;9.076;2023-07-29T01:14:29;98345.16;;;20.11;100.00
63715;BME280;49858;48.956;9.076;2023-07-29T01:17:04;98342.88;;;20.06;100.00
63715;BME280;49858;48.956;9.076;2023-07-29T01:19:48;98339.28;;;19.86;100.00
63715;BME280;49858;48.956;9.076;2023-07-29T01:22:23;98345.25;;;19.64;100.00
63715;BME280;49858;48.956;9.076;2023-07-29T01:24:55;98338.09;;;19.63;100.00
63715;BME280;49858;48.956;9.076;2023-07-29T01:27:25;98342.16;;;20.02;100.00
63715;BME280;49858;48.956;9.076;2023-07-29T01:29:54;98346.00;;;20.08;100.00
63715;BME280;49858;48.956;9.076;2023-07-29T01:32:29;98341.59;;;20.11;100.00
63715;BME280;49858;48.956;9.076;2023-07-29T01:35:10;98337.66;;;20.28;100.00
63715;BME280;49858;48.956;9.076;2023-07-29T01:37:39;98333.50;;;20.16;100.00
63715;BME280;49858;48.956;9.076;2023-07-29T01:40:10;98328.06;;;20.09;100.00
63715;BME280;49858;48.956;9.076;2023-07-29T01:42:38;98339.72;;;20.44;100.00
63715;BME280;49858;48.956;9.076;2023-07-29T01:45:06;98325.34;;;20.06;100.00
63715;BME280;49858;48.956;9.076;2023-07-29T01:47:34;98322.88;;;19.88;100.00
63715;BME280;49858;48.956;9.076;2023-07-29T01:50:08;98321.81;;;19.58;100.00
63715;BME280;49858;48.956;9.076;2023-07-29T01:52:36;98327.88;;;19.77;100.00
63715;BME280;49858;48.956;9.076;2023-07-29T01:55:04;98323.94;;;19.94;100.00
63715;BME280;49858;48.956;9.076;2023-07-29T01:57:34;98326.75;;;19.94;100.00
63715;BME280;49858;48.956;9.076;2023-07-29T02:00:02;98322.59;;;20.02;100.00
63715;BME280;49858;48.956;9.076;2023-07-29T02:02:41;98320.59;;;19.83;100.00
63715;BME280;49858;48.956;9.076;2023-07-29T02:05:09;98319.59;;;19.93;100.00
63715;BME280;49858;48.956;9.076;2023-07-29T02:07:37;98305.22;;;20.14;100.00
63715;BME280;49858;48.956;9.076;2023-07-29T02:10:05;98310.94;;;20.07;100.00
63715;BME280;49858;48.956;9.076;2023-07-29T02:12:35;98307.78;;;20.25;100.00
63715;BME280;49858;48.956;9.076;2023-07-29T02:15:04;98305.00;;;20.25;100.00
63715;BME280;49858;48.956;9.076;2023-07-29T02:17:31;98300.34;;;20.19;100.00
63715;BME280;49858;48.956;9.076;2023-07-29T02:19:59;98299.13;;;20.20;100.00
63715;BME280;49858;48.956;9.076;2023-07-29T02:22:27;98303.00;;;20.06;100.00
63715;BME280;49858;48.956;9.076;2023-07-29T02:24:55;98302.63;;;20.04;100.00
63715;BME280;49858;48.956;9.076;2023-07-29T02:27:23;98297.41;;;20.06;100.00
63715;BME280;49858;48.956;9.076;2023-07-29T02:29:54;98302.56;;;20.07;100.00
63715;BME280;49858;48.956;9.076;2023-07-29T02:32:22;98303.72;;;20.10;100.00
63715;BME280;49858;48.956;9.076;2023-07-29T02:34:51;98299.97;;;20.16;100.00
63715;BME280;49858;48.956;9.076;2023-07-29T02:37:18;98304.94;;;20.29;100.00
63715;BME280;49858;48.956;9.076;2023-07-29T02:39:46;98303.53;;;20.37;100.00
63715;BME280;49858;48.956;9.076;2023-07-29T02:42:14;98297.09;;;20.40;100.00
63715;BME280;49858;48.956;9.076;2023-07-29T02:44:45;98300.41;;;20.15;100.00
63715;BME280;49858;48.956;9.076;2023-07-29T02:47:14;98306.78;;;20.15;100.00
63715;BME280;49858;48.956;9.076;2023-07-29T02:49:41;98291.03;;;20.25;100.00
63715;BME280;49858;48.956;9.076;2023-07-29T02:52:09;98273.63;;;20.17;100.00
63715;BME280;49858;48.956;9.076;2023-07-29T02:54:37;98287.03;;;19.86;100.00
63715;BME280;49858;48.956;9.076;2023-07-29T02:57:05;98287.59;;;19.78;100.00
63715;BME280;49858;48.956;9.076;2023-07-29T02:59:33;98280.16;;;19.24;100.00
63715;BME280;49858;48.956;9.076;2023-07-29T03:02:01;98288.41;;;19.31;100.00
63715;BME280;49858;48.956;9.076;2023-07-29T03:04:30;98284.34;;;19.12;100.00
63715;BME280;49858;48.956;9.076;2023-07-29T03:07:00;98293.25;;;19.27;100.00
63715;BME280;49858;48.956;9.076;2023-07-29T03:09:29;98282.00;;;19.78;100.00
63715;BME280;49858;48.956;9.076;2023-07-29T03:11:56;98272.34;;;20.02;100.00
63715;BME280;49858;48.956;9.076;2023-07-29T03:14:25;98266.72;;;19.86;100.00
63715;BME280;49858;48.956;9.076;2023-07-29T03:16:56;98262.25;;;19.69;100.00
63715;BME280;49858;48.956;9.076;2023-07-29T03:19:24;98264.19;;;19.72;100.00
63715;BME280;49858;48.956;9.076;2023-07-29T03:21:54;98268.63;;;19.69;100.00
63715;BME280;49858;48.956;9.076;2023-07-29T03:24:21;98264.44;;;19.81;100.00
63715;BME280;49858;48.956;9.076;2023-07-29T03:26:49;98271.06;;;19.67;100.00
63715;BME280;49858;48.956;9.076;2023-07-29T03:29:17;98267.22;;;19.57;100.00
63715;BME280;49858;48.956;9.076;2023-07-29T03:31:45;98275.91;;;19.63;100.00
63715;BME280;49858;48.956;9.076;2023-07-29T03:34:14;98274.88;;;19.77;100.00
63715;BME280;49858;48.956;9.076;2023-07-29T03:36:45;98269.22;;;20.00;100.00
63715;BME280;49858;48.956;9.076;2023-07-29T03:39:15;98274.59;;;19.91;100.00
63715;BME280;49858;48.956;9.076;2023-07-29T03:41:43;98259.03;;;20.10;100.00
63715;BME280;49858;48.956;9.076;2023-07-29T03:44:11;98251.31;;;19.78;100.00
63715;BME280;49858;48.956;9.076;2023-07-29T03:46:39;98257.72;;;19.31;100.00
63715;BME280;49858;48.956;9.076;2023-07-29T03:49:08;98261.47;;;19.45;100.00
63715;BME280;49858;48.956;9.076;2023-07-29T03:51:36;98253.38;;;19.30;100.00
63715;BME280;49858;48.956;9.076;2023-07-29T03:54:04;98252.66;;;19.26;100.00
63715;BME280;49858;48.956;9.076;2023-07-29T03:56:33;98256.03;;;19.37;100.00
63715;BME280;49858;48.956;9.076;2023-07-29T03:59:02;98267.59;;;19.59;100.00
63715;BME280;49858;48.956;9.076;2023-07-29T04:01:31;98259.78;;;19.51;100.00
63715;BME280;49858;48.956;9.076;2023-07-29T04:03:59;98258.50;;;19.55;100.00
63715;BME280;49858;48.956;9.076;2023-07-29T04:06:27;98253.47;;;19.47;100.00
63715;BME280;49858;48.956;9.076;2023-07-29T04:08:55;98266.69;;;19.42;100.00
63715;BME280;49858;48.956;9.076;2023-07-29T04:11:23;98275.72;;;19.50;100.00
63715;BME280;49858;48.956;9.076;2023-07-29T04:13:53;98263.50;;;19.21;100.00
63715;BME280;49858;48.956;9.076;2023-07-29T04:16:25;98254.66;;;19.02;100.00
63715;BME280;49858;48.956;9.076;2023-07-29T04:18:53;98254.84;;;18.92;100.00
63715;BME280;49858;48.956;9.076;2023-07-29T04:21:21;98266.56;;;18.49;100.00
63715;BME280;49858;48.956;9.076;2023-07-29T04:23:49;98284.59;;;18.71;100.00
63715;BME280;49858;48.956;9.076;2023-07-29T04:26:17;98279.53;;;18.89;100.00
63715;BME280;49858;48.956;9.076;2023-07-29T04:28:45;98281.81;;;18.71;100.00
63715;BME280;49858;48.956;9.076;2023-07-29T04:31:14;98298.69;;;18.57;100.00
63715;BME280;49858;48.956;9.076;2023-07-29T04:33:42;98310.06;;;18.39;100.00
63715;BME280;49858;48.956;9.076;2023-07-29T04:36:10;98326.97;;;18.25;100.00
63715;BME280;49858;48.956;9.076;2023-07-29T04:38:38;98335.22;;;18.35;100.00
63715;BME280;49858;48.956;9.076;2023-07-29T04:41:06;98356.13;;;18.17;100.00
63715;BME280;49858;48.956;9.076;2023-07-29T04:43:35;98474.31;;;17.56;100.00
63715;BME280;49858;48.956;9.076;2023-07-29T04:46:06;98534.81;;;17.97;100.00
63715;BME280;49858;48.956;9.076;2023-07-29T04:48:36;98516.66;;;17.19;100.00
63715;BME280;49858;48.956;9.076;2023-07-29T04:51:04;98540.50;;;17.13;100.00
63715;BME280;49858;48.956;9.076;2023-07-29T04:53:31;98539.25;;;17.25;100.00
63715;BME280;49858;48.956;9.076;2023-07-29T04:56:01;98512.72;;;17.79;100.00
63715;BME280;49858;48.956;9.076;2023-07-29T04:58:29;98491.13;;;17.94;100.00
63715;BME280;49858;48.956;9.076;2023-07-29T05:01:06;98483.19;;;18.34;100.00
63715;BME280;49858;48.956;9.076;2023-07-29T05:03:36;98478.69;;;18.81;100.00
63715;BME280;49858;48.956;9.076;2023-07-29T05:06:06;98453.50;;;18.92;100.00
63715;BME280;49858;48.956;9.076;2023-07-29T05:08:34;98429.69;;;19.14;100.00
63715;BME280;49858;48.956;9.076;2023-07-29T05:11:02;98410.56;;;18.55;100.00
63715;BME280;49858;48.956;9.076;2023-07-29T05:13:33;98391.59;;;18.43;100.00
63715;BME280;49858;48.956;9.076;2023-07-29T05:16:01;98381.41;;;18.94;100.00
63715;BME280;49858;48.956;9.076;2023-07-29T05:19:09;98361.72;;;19.05;100.00
63715;BME280;49858;48.956;9.076;2023-07-29T05:21:58;98356.81;;;19.39;100.00
63715;BME280;49858;48.956;9.076;2023-07-29T05:29:23;98352.91;;;19.33;100.00
63715;BME280;49858;48.956;9.076;2023-07-29T05:36:07;98331.47;;;19.30;100.00
63715;BME280;49858;48.956;9.076;2023-07-29T05:38:35;98347.41;;;19.30;100.00
63715;BME280;49858;48.956;9.076;2023-07-29T05:41:04;98350.94;;;19.34;100.00
63715;BME280;49858;48.956;9.076;2023-07-29T05:44:02;98345.72;;;19.36;100.00
63715;BME280;49858;48.956;9.076;2023-07-29T05:46:36;98353.13;;;18.65;100.00
63715;BME280;49858;48.956;9.076;2023-07-29T05:49:04;98355.78;;;18.45;100.00
63715;BME280;49858;48.956;9.076;2023-07-29T05:51:36;98363.47;;;18.95;100.00
63715;BME280;49858;48.956;9.076;2023-07-29T05:54:04;98369.72;;;19.30;100.00
63715;BME280;49858;48.956;9.076;2023-07-29T05:56:32;98357.28;;;19.34;100.00
63715;BME280;49858;48.956;9.076;2023-07-29T05:59:01;98354.41;;;19.38;100.00
63715;BME280;49858;48.956;9.076;2023-07-29T06:01:31;98342.41;;;19.88;100.00
63715;BME280;49858;48.956;9.076;2023-07-29T06:03:58;98332.25;;;19.78;100.00
63715;BME280;49858;48.956;9.076;2023-07-29T06:06:26;98325.19;;;20.13;100.00
63715;BME280;49858;48.956;9.076;2023-07-29T06:08:59;98318.19;;;20.05;100.00
63715;BME280;49858;48.956;9.076;2023-07-29T06:11:27;98315.00;;;19.83;100.00
63715;BME280;49858;48.956;9.076;2023-07-29T06:13:54;98314.19;;;19.39;100.00
63715;BME280;49858;48.956;9.076;2023-07-29T06:16:23;98323.03;;;20.01;100.00
63715;BME280;49858;48.956;9.076;2023-07-29T06:18:51;98317.72;;;20.46;100.00
63715;BME280;49858;48.956;9.076;2023-07-29T06:21:20;98319.75;;;20.82;100.00
63715;BME280;49858;48.956;9.076;2023-07-29T06:23:49;98306.94;;;20.48;100.00
63715;BME280;49858;48.956;9.076;2023-07-29T06:26:18;98308.56;;;20.82;100.00
63715;BME280;49858;48.956;9.076;2023-07-29T06:28:46;98312.16;;;20.82;100.00
63715;BME280;49858;48.956;9.076;2023-07-29T06:31:14;98311.56;;;21.07;100.00
63715;BME280;49858;48.956;9.076;2023-07-29T06:33:41;98312.94;;;20.83;100.00
63715;BME280;49858;48.956;9.076;2023-07-29T06:36:09;98315.25;;;21.04;100.00
63715;BME280;49858;48.956;9.076;2023-07-29T06:38:37;98310.16;;;21.15;100.00
63715;BME280;49858;48.956;9.076;2023-07-29T06:41:05;98313.34;;;21.34;100.00
63715;BME280;49858;48.956;9.076;2023-07-29T06:43:34;98312.59;;;21.30;100.00
63715;BME280;49858;48.956;9.076;2023-07-29T06:46:02;98296.91;;;21.03;100.00
63715;BME280;49858;48.956;9.076;2023-07-29T06:48:30;98315.06;;;21.11;100.00
63715;BME280;49858;48.956;9.076;2023-07-29T06:50:58;98331.69;;;20.66;100.00
63715;BME280;49858;48.956;9.076;2023-07-29T06:53:27;98331.34;;;20.04;100.00
63715;BME280;49858;48.956;9.076;2023-07-29T06:55:59;98343.72;;;20.03;100.00
63715;BME280;49858;48.956;9.076;2023-07-29T06:58:27;98346.25;;;19.51;100.00
63715;BME280;49858;48.956;9.076;2023-07-29T07:00:56;98354.13;;;19.32;100.00
63715;BME280;49858;48.956;9.076;2023-07-29T07:03:24;98358.38;;;19.87;100.00
63715;BME280;49858;48.956;9.076;2023-07-29T07:05:52;98355.28;;;19.62;100.00
63715;BME280;49858;48.956;9.076;2023-07-29T07:08:20;98360.09;;;19.81;100.00
63715;BME280;49858;48.956;9.076;2023-07-29T07:10:48;98353.72;;;19.81;100.00
63715;BME280;49858;48.956;9.076;2023-07-29T07:13:18;98365.09;;;19.43;100.00
63715;BME280;49858;48.956;9.076;2023-07-29T07:15:46;98373.00;;;19.48;100.00
63715;BME280;49858;48.956;9.076;2023-07-29T07:18:16;98376.59;;;19.49;100.00
63715;BME280;49858;48.956;9.076;2023-07-29T07:20:48;98390.03;;;19.54;100.00
63715;BME280;49858;48.956;9.076;2023-07-29T07:23:16;98398.03;;;19.52;100.00
63715;BME280;49858;48.956;9.076;2023-07-29T07:25:44;98393.13;;;20.06;100.00
63715;BME280;49858;48.956;9.076;2023-07-29T07:28:12;98393.47;;;20.72;100.00
63715;BME280;49858;48.956;9.076;2023-07-29T07:30:40;98385.66;;;20.63;100.00
63715;BME280;49858;48.956;9.076;2023-07-29T07:33:11;98372.91;;;20.42;100.00
63715;BME280;49858;48.956;9.076;2023-07-29T07:35:40;98377.41;;;20.76;100.00
63715;BME280;49858;48.956;9.076;2023-07-29T07:38:09;98373.09;;;20.31;100.00
63715;BME280;49858;48.956;9.076;2023-07-29T07:40:36;98371.09;;;20.32;100.00
63715;BME280;49858;48.956;9.076;2023-07-29T07:43:06;98377.03;;;21.26;100.00
63715;BME280;49858;48.956;9.076;2023-07-29T07:45:34;98368.31;;;20.88;100.00
63715;BME280;49858;48.956;9.076;2023-07-29T07:48:02;98365.31;;;20.99;100.00
63715;BME280;49858;48.956;9.076;2023-07-29T07:50:30;98347.09;;;21.43;100.00
63715;BME280;49858;48.956;9.076;2023-07-29T07:53:00;98346.97;;;21.79;100.00
63715;BME280;49858;48.956;9.076;2023-07-29T07:55:28;98327.78;;;22.23;100.00
63715;BME280;49858;48.956;9.076;2023-07-29T07:57:56;98316.63;;;22.61;100.00
63715;BME280;49858;48.956;9.076;2023-07-29T08:00:24;98324.09;;;22.93;100.00
63715;BME280;49858;48.956;9.076;2023-07-29T08:02:52;98322.97;;;22.91;100.00
63715;BME280;49858;48.956;9.076;2023-07-29T08:05:20;98299.06;;;23.25;100.00
63715;BME280;49858;48.956;9.076;2023-07-29T08:07:49;98297.44;;;23.36;100.00
63715;BME280;49858;48.956;9.076;2023-07-29T08:10:19;98284.84;;;23.41;100.00
63715;BME280;49858;48.956;9.076;2023-07-29T08:12:47;98300.22;;;23.49;100.00
63715;BME280;49858;48.956;9.076;2023-07-29T08:15:15;98308.66;;;23.36;100.00
63715;BME280;49858;48.956;9.076;2023-07-29T08:17:42;98310.38;;;23.34;100.00
63715;BME280;49858;48.956;9.076;2023-07-29T08:20:10;98312.06;;;23.79;100.00
63715;BME280;49858;48.956;9.076;2023-07-29T08:22:38;98308.97;;;23.51;100.00
63715;BME280;49858;48.956;9.076;2023-07-29T08:25:07;98329.25;;;21.82;100.00
63715;BME280;49858;48.956;9.076;2023-07-29T08:27:36;98351.13;;;21.42;100.00
63715;BME280;49858;48.956;9.076;2023-07-29T08:30:05;98368.44;;;21.01;100.00
63715;BME280;49858;48.956;9.076;2023-07-29T08:32:38;98377.66;;;21.17;100.00
63715;BME280;49858;48.956;9.076;2023-07-29T08:35:06;98368.28;;;21.08;100.00
63715;BME280;49858;48.956;9.076;2023-07-29T08:37:34;98365.84;;;21.26;100.00
63715;BME280;49858;48.956;9.076;2023-07-29T08:40:02;98352.94;;;21.49;100.00
63715;BME280;49858;48.956;9.076;2023-07-29T08:42:31;98348.56;;;21.48;100.00
63715;BME280;49858;48.956;9.076;2023-07-29T08:45:06;98364.72;;;21.89;100.00
63715;BME280;49858;48.956;9.076;2023-07-29T08:47:35;98351.88;;;21.75;100.00
63715;BME280;49858;48.956;9.076;2023-07-29T08:50:04;98340.97;;;21.93;100.00
63715;BME280;49858;48.956;9.076;2023-07-29T08:52:32;98330.16;;;22.08;100.00
63715;BME280;49858;48.956;9.076;2023-07-29T08:55:02;98328.44;;;21.98;100.00
63715;BME280;49858;48.956;9.076;2023-07-29T08:57:30;98319.28;;;21.98;100.00
63715;BME280;49858;48.956;9.076;2023-07-29T08:59:58;98321.41;;;22.06;100.00
63715;BME280;49858;48.956;9.076;2023-07-29T09:02:27;98319.00;;;22.76;100.00
63715;BME280;49858;48.956;9.076;2023-07-29T09:04:56;98322.03;;;22.14;100.00
63715;BME280;49858;48.956;9.076;2023-07-29T09:07:24;98316.53;;;22.65;100.00
63715;BME280;49858;48.956;9.076;2023-07-29T09:09:52;98310.56;;;22.08;100.00
63715;BME280;49858;48.956;9.076;2023-07-29T09:12:20;98310.03;;;21.84;100.00
63715;BME280;49858;48.956;9.076;2023-07-29T09:14:51;98295.97;;;22.01;100.00
63715;BME280;49858;48.956;9.076;2023-07-29T09:17:19;98291.44;;;22.19;100.00
63715;BME280;49858;48.956;9.076;2023-07-29T09:19:52;98306.50;;;22.26;100.00
63715;BME280;49858;48.956;9.076;2023-07-29T09:22:21;98303.53;;;21.87;100.00
63715;BME280;49858;48.956;9.076;2023-07-29T09:24:57;98301.91;;;22.03;100.00
63715;BME280;49858;48.956;9.076;2023-07-29T09:27:27;98290.94;;;22.37;100.00
63715;BME280;49858;48.956;9.076;2023-07-29T09:29:58;98284.22;;;22.35;100.00
63715;BME280;49858;48.956;9.076;2023-07-29T09:32:25;98283.66;;;22.40;100.00
63715;BME280;49858;48.956;9.076;2023-07-29T09:34:55;98296.94;;;22.78;100.00
63715;BME280;49858;48.956;9.076;2023-07-29T09:37:24;98295.84;;;22.33;100.00
63715;BME280;49858;48.956;9.076;2023-07-29T09:39:52;98319.75;;;22.38;100.00
63715;BME280;49858;48.956;9.076;2023-07-29T09:42:22;98338.56;;;21.63;100.00
63715;BME280;49858;48.956;9.076;2023-07-29T09:44:55;98361.78;;;20.58;100.00
63715;BME280;49858;48.956;9.076;2023-07-29T09:47:26;98373.63;;;20.66;100.00
63715;BME280;49858;48.956;9.076;2023-07-29T09:49:55;98392.78;;;20.24;100.00
63715;BME280;49858;48.956;9.076;2023-07-29T09:52:23;98398.59;;;20.33;100.00
63715;BME280;49858;48.956;9.076;2023-07-29T09:54:51;98503.81;;;19.70;100.00
63715;BME280;49858;48.956;9.076;2023-07-29T09:57:19;98550.31;;;19.19;100.00
63715;BME280;49858;48.956;9.076;2023-07-29T09:59:53;98542.00;;;19.46;100.00
63715;BME280;49858;48.956;9.076;2023-07-29T10:02:26;98515.69;;;18.85;100.00
63715;BME280;49858;48.956;9.076;2023-07-29T10:04:57;98495.13;;;19.06;100.00
63715;BME280;49858;48.956;9.076;2023-07-29T10:07:26;98478.59;;;18.92;100.00
63715;BME280;49858;48.956;9.076;2023-07-29T10:09:54;98471.84;;;19.20;100.00
63715;BME280;49858;48.956;9.076;2023-07-29T10:12:24;98458.56;;;19.55;100.00
63715;BME280;49858;48.956;9.076;2023-07-29T10:14:53;98440.22;;;19.30;100.00
63715;BME280;49858;48.956;9.076;2023-07-29T10:17:21;98429.09;;;19.81;100.00
63715;BME280;49858;48.956;9.076;2023-07-29T10:19:49;98435.25;;;19.69;100.00
63715;BME280;49858;48.956;9.076;2023-07-29T10:22:20;98440.47;;;19.90;100.00
63715;BME280;49858;48.956;9.076;2023-07-29T10:24:49;98419.00;;;20.30;100.00
63715;BME280;49858;48.956;9.076;2023-07-29T10:27:21;98419.28;;;20.16;100.00
63715;BME280;49858;48.956;9.076;2023-07-29T10:29:53;98415.38;;;20.33;100.00
63715;BME280;49858;48.956;9.076;2023-07-29T10:32:25;98399.75;;;19.92;100.00
63715;BME280;49858;48.956;9.076;2023-07-29T10:34:54;98402.84;;;19.98;100.00
63715;BME280;49858;48.956;9.076;2023-07-29T10:37:23;98404.38;;;20.23;100.00
63715;BME280;49858;48.956;9.076;2023-07-29T10:39:53;98400.91;;;20.38;100.00
63715;BME280;49858;48.956;9.076;2023-07-29T10:42:22;98389.59;;;20.65;100.00
63715;BME280;49858;48.956;9.076;2023-07-29T10:44:51;98379.13;;;21.06;100.00
63715;BME280;49858;48.956;9.076;2023-07-29T10:47:21;98377.47;;;21.25;100.00
63715;BME280;49858;48.956;9.076;2023-07-29T10:49:52;98371.13;;;21.40;100.00
63715;BME280;49858;48.956;9.076;2023-07-29T10:52:41;98365.41;;;21.77;100.00
63715;BME280;49858;48.956;9.076;2023-07-29T10:55:26;98364.91;;;21.65;100.00
63715;BME280;49858;48.956;9.076;2023-07-29T10:58:05;98336.22;;;22.07;100.00
63715;BME280;49858;48.956;9.076;2023-07-29T11:00:33;98325.84;;;22.20;100.00
63715;BME280;49858;48.956;9.076;2023-07-29T11:03:03;98327.41;;;22.63;100.00
63715;BME280;49858;48.956;9.076;2023-07-29T11:05:49;98312.38;;;22.69;100.00
63715;BME280;49858;48.956;9.076;2023-07-29T11:08:25;98314.06;;;23.43;100.00
63715;BME280;49858;48.956;9.076;2023-07-29T11:10:58;98320.00;;;22.56;100.00
63715;BME280;49858;48.956;9.076;2023-07-29T11:13:27;98310.59;;;23.27;100.00
63715;BME280;49858;48.956;9.076;2023-07-29T11:15:56;98314.78;;;22.97;100.00
63715;BME280;49858;48.956;9.076;2023-07-29T11:18:29;98310.50;;;23.05;100.00
63715;BME280;49858;48.956;9.076;2023-07-29T11:20:58;98326.81;;;22.42;100.00
63715;BME280;49858;48.956;9.076;2023-07-29T11:23:29;98316.09;;;22.66;100.00
63715;BME280;49858;48.956;9.076;2023-07-29T11:25:59;98317.03;;;23.02;100.00
63715;BME280;49858;48.956;9.076;2023-07-29T11:28:29;98284.75;;;23.44;100.00
63715;BME280;49858;48.956;9.076;2023-07-29T11:30:58;98286.59;;;23.00;100.00
63715;BME280;49858;48.956;9.076;2023-07-29T11:33:26;98286.41;;;23.55;100.00
63715;BME280;49858;48.956;9.076;2023-07-29T11:35:55;98279.84;;;23.23;100.00
63715;BME280;49858;48.956;9.076;2023-07-29T11:38:23;98279.34;;;23.50;100.00
63715;BME280;49858;48.956;9.076;2023-07-29T11:40:57;98272.75;;;23.31;100.00
63715;BME280;49858;48.956;9.076;2023-07-29T11:43:26;98270.34;;;23.55;100.00
63715;BME280;49858;48.956;9.076;2023-07-29T11:45:54;98284.38;;;24.34;100.00
63715;BME280;49858;48.956;9.076;2023-07-29T11:48:31;98274.56;;;23.73;100.00
63715;BME280;49858;48.956;9.076;2023-07-29T11:50:59;98261.47;;;23.91;100.00
63715;BME280;49858;48.956;9.076;2023-07-29T11:53:28;98262.31;;;24.01;100.00
63715;BME280;49858;48.956;9.076;2023-07-29T11:55:58;98260.84;;;23.75;100.00
63715;BME280;49858;48.956;9.076;2023-07-29T11:58:26;98263.53;;;24.44;100.00
63715;BME280;49858;48.956;9.076;2023-07-29T12:00:57;98257.03;;;23.81;100.00
63715;BME280;49858;48.956;9.076;2023-07-29T12:03:26;98238.88;;;24.48;100.00
63715;BME280;49858;48.956;9.076;2023-07-29T12:05:55;98254.56;;;23.70;100.00
63715;BME280;49858;48.956;9.076;2023-07-29T12:08:23;98251.56;;;23.65;100.00
63715;BME280;49858;48.956;9.076;2023-07-29T12:10:51;98255.25;;;23.27;100.00
63715;BME280;49858;48.956;9.076;2023-07-29T12:13:23;98254.56;;;23.70;100.00
63715;BME280;49858;48.956;9.076;2023-07-29T12:15:51;98240.94;;;23.82;100.00
63715;BME280;49858;48.956;9.076;2023-07-29T12:18:29;98244.81;;;24.50;100.00
63715;BME280;49858;48.956;9.076;2023-07-29T12:20:57;98244.91;;;23.93;100.00
63715;BME280;49858;48.956;9.076;2023-07-29T12:23:26;98241.75;;;24.13;100.00
63715;BME280;49858;48.956;9.076;2023-07-29T12:25:57;98252.75;;;23.98;100.00
63715;BME280;49858;48.956;9.076;2023-07-29T12:28:30;98251.47;;;23.90;100.00
63715;BME280;49858;48.956;9.076;2023-07-29T12:30:59;98255.09;;;24.44;100.00
63715;BME280;49858;48.956;9.076;2023-07-29T12:33:31;98242.06;;;24.68;100.00
63715;BME280;49858;48.956;9.076;2023-07-29T12:35:59;98237.69;;;25.08;100.00
63715;BME280;49858;48.956;9.076;2023-07-29T12:38:27;98234.94;;;25.44;100.00
63715;BME280;49858;48.956;9.076;2023-07-29T12:40:55;98232.06;;;24.67;100.00
63715;BME280;49858;48.956;9.076;2023-07-29T12:43:25;98228.38;;;24.17;100.00
63715;BME280;49858;48.956;9.076;2023-07-29T12:45:54;98225.44;;;23.99;100.00
63715;BME280;49858;48.956;9.076;2023-07-29T12:48:22;98225.19;;;24.06;100.00
63715;BME280;49858;48.956;9.076;2023-07-29T12:50:50;98225.13;;;23.97;100.00
63715;BME280;49858;48.956;9.076;2023-07-29T12:53:18;98229.88;;;23.65;100.00
63715;BME280;49858;48.956;9.076;2023-07-29T12:55:46;98213.63;;;23.82;100.00
63715;BME280;49858;48.956;9.076;2023-07-29T12:58:13;98207.19;;;23.73;100.00
63715;BME280;49858;48.956;9.076;2023-07-29T13:00:41;98206.38;;;23.94;100.00
63715;BME280;49858;48.956;9.076;2023-07-29T13:03:11;98211.31;;;24.12;100.00
63715;BME280;49858;48.956;9.076;2023-07-29T13:05:39;98201.94;;;24.06;100.00
63715;BME280;49858;48.956;9.076;2023-07-29T13:08:07;98209.28;;;23.81;100.00
63715;BME280;49858;48.956;9.076;2023-07-29T13:10:35;98208.31;;;24.06;100.00
63715;BME280;49858;48.956;9.076;2023-07-29T13:13:02;98210.31;;;23.75;100.00